Terminal Aerodrome Forecast
Issued by NWS Goodland, KS

Home | Current Version | Previous Version | Graphics & Text | Print | Product List | Glossary On
Versions: 1 2 3 4 5 6 7 8 9 10 11 12 13 14 15 16 17 18
000
FTUS43 KGLD 270733 AAB
TAFGLD
TAF AMD
KGLD 270733Z 2708/2806 15007KT P6SM OVC100
     FM270900 VRB05KT P6SM -SHRA VCTS SCT025 BKN060CB
     FM271200 17005KT 5SM BR VCSH SCT005 BKN015
     FM271600 20015G25KT P6SM SCT060 BKN200
     FM280100 18010KT P6SM -TSRA BKN060CB=

USA.gov is the U.S. government's official web portal to all federal, state and local government web resources and services.